| time (UTC) | temp F | wind direction | speed MPH | gust MPH | rain 1hr in | rain 24hr in | rain mn in | humidity % | barometer mb |
| 20260505082516 | 68 | 0.0 | 0.0 | 0.00 | 0.00 | 0.00 | 88 | 1013.8 | |
| 20260505081516 | 68 | 0.0 | 0.0 | 0.00 | 0.00 | 0.00 | 87 | 1013.7 | |
| 20260505080516 | 68 | 0.0 | 0.0 | 0.00 | 0.00 | 0.00 | 87 | 1013.7 | |
| 20260505075536 | 69 | 0.0 | 0.0 | 0.00 | 0.00 | 0.00 | 86 | 1013.8 | |
| 20260505074516 | 69 | 0.0 | 3.0 | 0.00 | 0.00 | 0.00 | 86 | 1013.8 | |
| 20260505073516 | 69 | 52 | 0.0 | 2.0 | 0.00 | 0.00 | 0.00 | 86 | 1014.0 |
| 20260505072536 | 69 | 47 | 0.0 | 2.0 | 0.00 | 0.00 | 0.00 | 85 | 1014.0 |
| 20260505071516 | 69 | 37 | 0.0 | 2.0 | 0.00 | 0.00 | 0.00 | 85 | 1014.0 |
| 20260505070516 | 69 | 30 | 0.0 | 2.0 | 0.00 | 0.00 | 0.00 | 84 | 1013.9 |
| 20260505065516 | 69 | 25 | 0.0 | 5.0 | 0.00 | 0.00 | 0.00 | 84 | 1013.9 |
| 20260505064536 | 70 | 31 | 0.0 | 2.0 | 0.00 | 0.00 | 0.00 | 83 | 1014.1 |
| 20260505063516 | 70 | 21 | 0.0 | 2.0 | 0.00 | 0.00 | 0.00 | 83 | 1014.1 |
| 20260505062516 | 70 | 35 | 0.0 | 2.0 | 0.00 | 0.00 | 0.00 | 83 | 1014.4 |
| 20260505061516 | 70 | 30 | 0.0 | 3.0 | 0.00 | 0.00 | 0.00 | 82 | 1014.7 |
| 20260505060536 | 70 | 32 | 0.0 | 2.0 | 0.00 | 0.00 | 0.00 | 82 | 1014.9 |
| 20260505055516 | 70 | 21 | 1.0 | 4.0 | 0.00 | 0.00 | 0.00 | 82 | 1015.1 |
| 20260505054516 | 70 | 28 | 1.0 | 4.0 | 0.00 | 0.00 | 0.00 | 82 | 1015.0 |
| 20260505053516 | 71 | 34 | 0.0 | 3.0 | 0.00 | 0.00 | 0.00 | 82 | 1015.0 |
| 20260505052516 | 71 | 22 | 0.0 | 7.0 | 0.00 | 0.00 | 0.00 | 82 | 1015.2 |
| 20260505051516 | 71 | 21 | 1.0 | 4.0 | 0.00 | 0.00 | 0.00 | 81 | 1015.2 |
| 20260505050516 | 71 | 32 | 0.0 | 2.0 | 0.00 | 0.00 | 0.00 | 81 | 1015.1 |
| 20260505041516 | 72 | 64 | 0.0 | 11.0 | 0.00 | 0.00 | 0.00 | 79 | 1015.4 |
| 20260505040516 | 72 | 55 | 2.0 | 11.0 | 0.00 | 0.00 | 0.00 | 78 | 1015.4 |
| 20260505035516 | 72 | 60 | 1.0 | 7.0 | 0.00 | 0.00 | 0.00 | 78 | 1015.3 |
| 20260505034515 | 73 | 61 | 2.0 | 7.0 | 0.00 | 0.00 | 0.00 | 77 | 1015.4 |
| 20260505033556 | 73 | 78 | 1.0 | 10.0 | 0.00 | 0.00 | 0.00 | 77 | 1015.4 |
| 20260505032516 | 73 | 74 | 2.0 | 8.0 | 0.00 | 0.00 | 0.00 | 76 | 1015.5 |
| 20260505031516 | 74 | 74 | 1.0 | 4.0 | 0.00 | 0.00 | 0.00 | 76 | 1015.4 |
| 20260505030516 | 74 | 49 | 1.0 | 8.0 | 0.00 | 0.00 | 0.00 | 75 | 1015.5 |
| 20260505025515 | 74 | 58 | 2.0 | 6.0 | 0.00 | 0.00 | 0.00 | 75 | 1015.5 |
| 20260505024536 | 74 | 77 | 2.0 | 7.0 | 0.00 | 0.00 | 0.00 | 74 | 1015.5 |
| 20260505023516 | 75 | 67 | 0.0 | 6.0 | 0.00 | 0.00 | 0.00 | 74 | 1015.4 |
| 20260505022516 | 75 | 67 | 1.0 | 3.0 | 0.00 | 0.00 | 0.00 | 74 | 1015.2 |
| 20260505021516 | 75 | 72 | 1.0 | 11.0 | 0.00 | 0.00 | 0.00 | 73 | 1015.1 |
| 20260505020515 | 76 | 78 | 1.0 | 6.0 | 0.00 | 0.00 | 0.00 | 73 | 1015.0 |
| 20260505015536 | 76 | 69 | 1.0 | 12.0 | 0.00 | 0.00 | 0.00 | 72 | 1015.1 |
| 20260505014516 | 76 | 61 | 2.0 | 7.0 | 0.00 | 0.00 | 0.00 | 71 | 1015.0 |
| 20260505013516 | 76 | 67 | 3.0 | 10.0 | 0.00 | 0.00 | 0.00 | 71 | 1014.8 |
| 20260505012516 | 77 | 75 | 2.0 | 10.0 | 0.00 | 0.00 | 0.00 | 70 | 1014.6 |
| 20260505011516 | 77 | 62 | 1.0 | 5.0 | 0.00 | 0.00 | 0.00 | 69 | 1014.5 |
| 20260505010515 | 78 | 48 | 1.0 | 5.0 | 0.00 | 0.00 | 0.00 | 68 | 1014.4 |
| 20260505005556 | 78 | 45 | 1.0 | 4.0 | 0.00 | 0.00 | 0.00 | 68 | 1014.3 |
| 20260505004515 | 78 | 48 | 0.0 | 3.0 | 0.00 | 0.00 | 0.00 | 67 | 1014.1 |
| 20260505003515 | 79 | 60 | 1.0 | 5.0 | 0.00 | 0.00 | 0.00 | 66 | 1014.1 |
| 20260505002515 | 79 | 64 | 1.0 | 4.0 | 0.00 | 0.00 | 0.00 | 66 | 1013.9 |
| 20260505001515 | 79 | 37 | 1.0 | 6.0 | 0.00 | 0.00 | 0.00 | 65 | 1013.7 |
| 20260505000515 | 79 | 230 | 0.0 | 7.0 | 0.00 | 0.00 | 0.00 | 65 | 1013.4 |
| 20260504235515 | 79 | 264 | 2.0 | 9.0 | 0.00 | 0.00 | 0.00 | 67 | 1013.1 |
| 20260504234515 | 78 | 251 | 5.0 | 11.0 | 0.00 | 0.00 | 0.00 | 67 | 1013.1 |
| 20260504233515 | 79 | 251 | 5.0 | 10.0 | 0.00 | 0.00 | 0.00 | 67 | 1013.2 |
| 20260504232515 | 79 | 230 | 3.0 | 6.0 | 0.00 | 0.00 | 0.00 | 67 | 1013.1 |
| 20260504231515 | 79 | 241 | 5.0 | 13.0 | 0.00 | 0.00 | 0.00 | 65 | 1013.1 |
| 20260504230515 | 79 | 245 | 4.0 | 9.0 | 0.00 | 0.00 | 0.00 | 66 | 1013.1 |
| 20260504225515 | 80 | 247 | 5.0 | 14.0 | 0.00 | 0.00 | 0.00 | 65 | 1013.1 |
| 20260504224536 | 81 | 230 | 6.0 | 10.0 | 0.00 | 0.00 | 0.00 | 64 | 1012.9 |
| 20260504223535 | 83 | 239 | 6.0 | 11.0 | 0.00 | 0.00 | 0.00 | 60 | 1013.0 |
| 20260504222536 | 84 | 270 | 3.0 | 9.0 | 0.00 | 0.00 | 0.00 | 54 | 1013.1 |
| 20260504221516 | 84 | 259 | 3.0 | 10.0 | 0.00 | 0.00 | 0.00 | 54 | 1013.2 |
| 20260504220515 | 84 | 316 | 2.0 | 11.0 | 0.00 | 0.00 | 0.00 | 53 | 1013.2 |
| 20260504215515 | 86 | 315 | 3.0 | 10.0 | 0.00 | 0.00 | 0.00 | 51 | 1013.2 |
| 20260504214515 | 86 | 193 | 1.0 | 5.0 | 0.00 | 0.00 | 0.00 | 49 | 1013.0 |
| 20260504213515 | 85 | 255 | 2.0 | 6.0 | 0.00 | 0.00 | 0.00 | 51 | 1013.1 |
| 20260504212535 | 85 | 171 | 1.0 | 6.0 | 0.00 | 0.00 | 0.00 | 50 | 1013.1 |
| 20260504211515 | 88 | 114 | 1.0 | 8.0 | 0.00 | 0.00 | 0.00 | 45 | 1013.2 |
| 20260504210515 | 86 | 112 | 5.0 | 13.0 | 0.00 | 0.00 | 0.00 | 48 | 1013.3 |
| 20260504205515 | 85 | 110 | 4.0 | 9.0 | 0.00 | 0.00 | 0.00 | 50 | 1013.3 |
| 20260504204515 | 84 | 114 | 4.0 | 10.0 | 0.00 | 0.00 | 0.00 | 52 | 1013.3 |
| 20260504203515 | 84 | 276 | 1.0 | 5.0 | 0.00 | 0.00 | 0.00 | 51 | 1013.4 |
| 20260504202515 | 84 | 300 | 1.0 | 4.0 | 0.00 | 0.00 | 0.00 | 51 | 1013.5 |
| 20260504201515 | 84 | 353 | 1.0 | 6.0 | 0.00 | 0.00 | 0.00 | 52 | 1013.4 |
| 20260504200515 | 83 | 49 | 2.0 | 8.0 | 0.00 | 0.00 | 0.00 | 51 | 1013.7 |
| 20260504195515 | 85 | 117 | 3.0 | 8.0 | 0.00 | 0.00 | 0.00 | 52 | 1013.7 |
| 20260504194515 | 83 | 216 | 1.0 | 9.0 | 0.00 | 0.00 | 0.00 | 54 | 1013.7 |
| 20260504193515 | 83 | 47 | 2.0 | 8.0 | 0.00 | 0.00 | 0.00 | 52 | 1013.9 |
| 20260504192535 | 84 | 270 | 1.0 | 6.0 | 0.00 | 0.00 | 0.00 | 50 | 1014.0 |
| 20260504191535 | 84 | 124 | 2.0 | 4.0 | 0.00 | 0.00 | 0.00 | 50 | 1014.1 |
| 20260504190515 | 83 | 279 | 0.0 | 3.0 | 0.00 | 0.00 | 0.00 | 47 | 1014.2 |
| 20260504185515 | 84 | 241 | 2.0 | 9.0 | 0.00 | 0.00 | 0.00 | 47 | 1014.3 |
| 20260504184515 | 84 | 41 | 1.0 | 3.0 | 0.00 | 0.00 | 0.00 | 47 | 1014.5 |
| 20260504183515 | 84 | 47 | 1.0 | 6.0 | 0.00 | 0.00 | 0.00 | 47 | 1014.9 |
| 20260504182515 | 84 | 87 | 2.0 | 10.0 | 0.00 | 0.00 | 0.00 | 47 | 1015.1 |
| 20260504181515 | 83 | 94 | 1.0 | 7.0 | 0.00 | 0.00 | 0.00 | 49 | 1015.2 |
| 20260504180537 | 82 | 329 | 3.0 | 9.0 | 0.00 | 0.00 | 0.00 | 49 | 1015.4 |
| 20260504175517 | 82 | 47 | 3.0 | 6.0 | 0.00 | 0.00 | 0.00 | 50 | 1015.6 |
| 20260504174517 | 82 | 49 | 4.0 | 12.0 | 0.00 | 0.00 | 0.00 | 51 | 1015.5 |
| 20260504173517 | 82 | 37 | 3.0 | 7.0 | 0.00 | 0.00 | 0.00 | 50 | 1015.7 |
| 20260504172537 | 82 | 44 | 2.0 | 10.0 | 0.00 | 0.00 | 0.00 | 51 | 1016.0 |
| 20260504171517 | 82 | 67 | 3.0 | 10.0 | 0.00 | 0.00 | 0.00 | 51 | 1016.0 |
| 20260504170517 | 81 | 6 | 3.0 | 11.0 | 0.00 | 0.00 | 0.00 | 53 | 1016.1 |
| 20260504150516 | 78 | 49 | 4.0 | 11.0 | 0.00 | 0.00 | 0.00 | 61 | 1017.0 |
| 20260504140517 | 76 | 39 | 3.0 | 11.0 | 0.00 | 0.00 | 0.00 | 69 | 1016.8 |
| 20260504130516 | 73 | 41 | 3.0 | 13.0 | 0.00 | 0.00 | 0.00 | 75 | 1016.1 |
| 20260504110536 | 68 | 37 | 2.0 | 9.0 | 0.00 | 0.00 | 0.00 | 82 | 1015.7 |
| 20260504100516 | 68 | 16 | 2.0 | 11.0 | 0.00 | 0.00 | 0.00 | 82 | 1015.3 |